sensor_id;sensor_type;location;lat;lon;timestamp;P1;durP1;ratioP1;P2;durP2;ratioP2
35042;SDS011;21230;51.170;17.024;2022-09-30T00:02:01;31.63;;;19.35;;
35042;SDS011;21230;51.170;17.024;2022-09-30T00:04:28;31.45;;;19.30;;
35042;SDS011;21230;51.170;17.024;2022-09-30T00:06:59;30.85;;;17.15;;
35042;SDS011;21230;51.170;17.024;2022-09-30T00:09:25;29.95;;;18.90;;
35042;SDS011;21230;51.170;17.024;2022-09-30T00:12:00;32.53;;;17.85;;
35042;SDS011;21230;51.170;17.024;2022-09-30T00:14:26;37.65;;;19.25;;
35042;SDS011;21230;51.170;17.024;2022-09-30T00:16:53;31.67;;;19.48;;
35042;SDS011;21230;51.170;17.024;2022-09-30T00:19:20;27.15;;;17.48;;
35042;SDS011;21230;51.170;17.024;2022-09-30T00:21:46;29.33;;;18.50;;
35042;SDS011;21230;51.170;17.024;2022-09-30T00:24:12;34.83;;;19.38;;
35042;SDS011;21230;51.170;17.024;2022-09-30T00:26:38;32.45;;;18.50;;
35042;SDS011;21230;51.170;17.024;2022-09-30T00:29:11;30.48;;;18.48;;
35042;SDS011;21230;51.170;17.024;2022-09-30T00:31:40;32.05;;;18.25;;
35042;SDS011;21230;51.170;17.024;2022-09-30T00:34:06;34.08;;;17.23;;
35042;SDS011;21230;51.170;17.024;2022-09-30T00:36:41;32.35;;;19.13;;
35042;SDS011;21230;51.170;17.024;2022-09-30T00:39:08;30.70;;;18.85;;
35042;SDS011;21230;51.170;17.024;2022-09-30T00:41:56;27.73;;;17.98;;
35042;SDS011;21230;51.170;17.024;2022-09-30T00:47:22;30.08;;;19.25;;
35042;SDS011;21230;51.170;17.024;2022-09-30T00:49:56;38.58;;;17.90;;
35042;SDS011;21230;51.170;17.024;2022-09-30T00:56:23;29.35;;;16.38;;
35042;SDS011;21230;51.170;17.024;2022-09-30T01:01:45;33.78;;;19.83;;
35042;SDS011;21230;51.170;17.024;2022-09-30T01:04:12;30.92;;;18.75;;
35042;SDS011;21230;51.170;17.024;2022-09-30T01:06:49;34.73;;;19.63;;
35042;SDS011;21230;51.170;17.024;2022-09-30T01:09:16;28.05;;;16.70;;
35042;SDS011;21230;51.170;17.024;2022-09-30T01:11:42;27.73;;;16.55;;
35042;SDS011;21230;51.170;17.024;2022-09-30T01:14:12;31.67;;;17.70;;
35042;SDS011;21230;51.170;17.024;2022-09-30T01:37:43;29.45;;;19.45;;
35042;SDS011;21230;51.170;17.024;2022-09-30T01:58:49;33.35;;;18.63;;
35042;SDS011;21230;51.170;17.024;2022-09-30T02:02:15;33.63;;;20.13;;
35042;SDS011;21230;51.170;17.024;2022-09-30T02:04:56;36.08;;;20.88;;
35042;SDS011;21230;51.170;17.024;2022-09-30T02:07:29;39.65;;;20.80;;
35042;SDS011;21230;51.170;17.024;2022-09-30T02:10:15;33.05;;;19.98;;
35042;SDS011;21230;51.170;17.024;2022-09-30T02:13:03;29.70;;;19.10;;
35042;SDS011;21230;51.170;17.024;2022-09-30T02:15:53;33.05;;;20.33;;
35042;SDS011;21230;51.170;17.024;2022-09-30T02:18:33;29.40;;;18.55;;
35042;SDS011;21230;51.170;17.024;2022-09-30T02:21:14;31.42;;;18.27;;
35042;SDS011;21230;51.170;17.024;2022-09-30T02:23:53;32.75;;;19.25;;
35042;SDS011;21230;51.170;17.024;2022-09-30T02:29:46;32.55;;;18.48;;
35042;SDS011;21230;51.170;17.024;2022-09-30T02:32:26;30.20;;;18.20;;
35042;SDS011;21230;51.170;17.024;2022-09-30T02:35:04;30.02;;;19.17;;
35042;SDS011;21230;51.170;17.024;2022-09-30T02:37:37;33.15;;;19.27;;
35042;SDS011;21230;51.170;17.024;2022-09-30T02:40:27;30.75;;;19.70;;
35042;SDS011;21230;51.170;17.024;2022-09-30T02:43:01;29.90;;;19.35;;
35042;SDS011;21230;51.170;17.024;2022-09-30T02:45:30;36.93;;;21.77;;
35042;SDS011;21230;51.170;17.024;2022-09-30T02:48:28;29.23;;;19.20;;
35042;SDS011;21230;51.170;17.024;2022-09-30T02:56:47;32.22;;;21.15;;
35042;SDS011;21230;51.170;17.024;2022-09-30T02:59:23;34.38;;;20.75;;
35042;SDS011;21230;51.170;17.024;2022-09-30T03:01:56;40.03;;;21.55;;
35042;SDS011;21230;51.170;17.024;2022-09-30T03:04:28;33.60;;;21.52;;
35042;SDS011;21230;51.170;17.024;2022-09-30T03:06:59;34.45;;;20.92;;
35042;SDS011;21230;51.170;17.024;2022-09-30T03:09:33;29.63;;;20.98;;
35042;SDS011;21230;51.170;17.024;2022-09-30T03:12:09;37.60;;;21.42;;
35042;SDS011;21230;51.170;17.024;2022-09-30T03:26:25;36.58;;;21.77;;
35042;SDS011;21230;51.170;17.024;2022-09-30T03:29:22;35.90;;;21.58;;
35042;SDS011;21230;51.170;17.024;2022-09-30T03:38:16;31.15;;;19.70;;
35042;SDS011;21230;51.170;17.024;2022-09-30T03:41:16;34.08;;;20.67;;
35042;SDS011;21230;51.170;17.024;2022-09-30T03:44:05;32.28;;;21.00;;
35042;SDS011;21230;51.170;17.024;2022-09-30T03:47:21;35.22;;;21.20;;
35042;SDS011;21230;51.170;17.024;2022-09-30T03:49:49;40.30;;;20.90;;
35042;SDS011;21230;51.170;17.024;2022-09-30T03:52:23;41.63;;;22.35;;
35042;SDS011;21230;51.170;17.024;2022-09-30T03:54:53;42.53;;;22.52;;
35042;SDS011;21230;51.170;17.024;2022-09-30T03:57:26;38.85;;;23.45;;
35042;SDS011;21230;51.170;17.024;2022-09-30T03:59:57;41.58;;;23.60;;
35042;SDS011;21230;51.170;17.024;2022-09-30T04:02:29;45.13;;;22.20;;
35042;SDS011;21230;51.170;17.024;2022-09-30T04:04:56;44.45;;;24.25;;
35042;SDS011;21230;51.170;17.024;2022-09-30T04:07:26;35.13;;;24.42;;
35042;SDS011;21230;51.170;17.024;2022-09-30T04:09:51;39.42;;;25.73;;
35042;SDS011;21230;51.170;17.024;2022-09-30T04:12:17;38.25;;;23.95;;
35042;SDS011;21230;51.170;17.024;2022-09-30T04:14:45;42.90;;;25.75;;
35042;SDS011;21230;51.170;17.024;2022-09-30T04:17:11;49.13;;;27.40;;
35042;SDS011;21230;51.170;17.024;2022-09-30T04:19:41;39.67;;;26.30;;
35042;SDS011;21230;51.170;17.024;2022-09-30T04:22:12;42.75;;;27.52;;
35042;SDS011;21230;51.170;17.024;2022-09-30T04:24:44;41.75;;;26.20;;
35042;SDS011;21230;51.170;17.024;2022-09-30T04:27:18;47.88;;;28.08;;
35042;SDS011;21230;51.170;17.024;2022-09-30T04:29:49;44.85;;;26.42;;
35042;SDS011;21230;51.170;17.024;2022-09-30T04:32:15;45.75;;;27.67;;
35042;SDS011;21230;51.170;17.024;2022-09-30T04:34:41;40.05;;;27.40;;
35042;SDS011;21230;51.170;17.024;2022-09-30T04:37:08;52.05;;;28.23;;
35042;SDS011;21230;51.170;17.024;2022-09-30T04:39:37;46.03;;;28.40;;
35042;SDS011;21230;51.170;17.024;2022-09-30T04:42:04;44.95;;;27.73;;
35042;SDS011;21230;51.170;17.024;2022-09-30T04:44:31;50.92;;;29.10;;
35042;SDS011;21230;51.170;17.024;2022-09-30T04:46:59;51.40;;;28.80;;
35042;SDS011;21230;51.170;17.024;2022-09-30T04:49:25;46.72;;;29.27;;
35042;SDS011;21230;51.170;17.024;2022-09-30T04:51:53;46.00;;;29.02;;
35042;SDS011;21230;51.170;17.024;2022-09-30T04:54:19;45.92;;;29.90;;
35042;SDS011;21230;51.170;17.024;2022-09-30T04:56:45;45.67;;;28.73;;
35042;SDS011;21230;51.170;17.024;2022-09-30T04:59:10;44.97;;;28.80;;
35042;SDS011;21230;51.170;17.024;2022-09-30T05:01:36;51.58;;;29.25;;
35042;SDS011;21230;51.170;17.024;2022-09-30T05:04:03;46.42;;;28.65;;
35042;SDS011;21230;51.170;17.024;2022-09-30T05:06:29;47.95;;;30.77;;
35042;SDS011;21230;51.170;17.024;2022-09-30T05:08:56;55.47;;;30.92;;
35042;SDS011;21230;51.170;17.024;2022-09-30T05:11:22;43.20;;;28.38;;
35042;SDS011;21230;51.170;17.024;2022-09-30T05:13:48;49.55;;;30.05;;
35042;SDS011;21230;51.170;17.024;2022-09-30T05:16:15;48.95;;;31.13;;
35042;SDS011;21230;51.170;17.024;2022-09-30T05:18:45;47.50;;;30.58;;
35042;SDS011;21230;51.170;17.024;2022-09-30T05:21:12;52.83;;;30.42;;
35042;SDS011;21230;51.170;17.024;2022-09-30T05:23:42;48.33;;;31.08;;
35042;SDS011;21230;51.170;17.024;2022-09-30T05:26:11;46.63;;;29.17;;
35042;SDS011;21230;51.170;17.024;2022-09-30T05:28:39;53.85;;;31.55;;
35042;SDS011;21230;51.170;17.024;2022-09-30T05:31:07;53.78;;;32.67;;
35042;SDS011;21230;51.170;17.024;2022-09-30T05:33:33;53.10;;;31.70;;
35042;SDS011;21230;51.170;17.024;2022-09-30T05:36:01;55.83;;;31.65;;
35042;SDS011;21230;51.170;17.024;2022-09-30T05:38:29;48.00;;;31.55;;
35042;SDS011;21230;51.170;17.024;2022-09-30T05:40:55;48.70;;;29.80;;
35042;SDS011;21230;51.170;17.024;2022-09-30T05:43:21;45.33;;;30.55;;
35042;SDS011;21230;51.170;17.024;2022-09-30T05:45:52;55.25;;;33.28;;
35042;SDS011;21230;51.170;17.024;2022-09-30T05:48:22;49.25;;;31.10;;
35042;SDS011;21230;51.170;17.024;2022-09-30T05:50:53;53.03;;;31.00;;
35042;SDS011;21230;51.170;17.024;2022-09-30T05:53:21;50.35;;;32.72;;
35042;SDS011;21230;51.170;17.024;2022-09-30T05:55:48;52.27;;;31.93;;
35042;SDS011;21230;51.170;17.024;2022-09-30T05:58:16;51.28;;;32.70;;
35042;SDS011;21230;51.170;17.024;2022-09-30T06:00:43;56.63;;;34.00;;
35042;SDS011;21230;51.170;17.024;2022-09-30T06:03:11;49.20;;;32.95;;
35042;SDS011;21230;51.170;17.024;2022-09-30T06:05:38;52.70;;;32.22;;
35042;SDS011;21230;51.170;17.024;2022-09-30T06:08:07;58.65;;;34.42;;
35042;SDS011;21230;51.170;17.024;2022-09-30T06:10:39;52.20;;;32.13;;
35042;SDS011;21230;51.170;17.024;2022-09-30T06:14:23;65.15;;;35.63;;
35042;SDS011;21230;51.170;17.024;2022-09-30T06:16:50;61.22;;;36.15;;
35042;SDS011;21230;51.170;17.024;2022-09-30T06:19:59;62.90;;;36.53;;
35042;SDS011;21230;51.170;17.024;2022-09-30T06:23:05;51.78;;;33.10;;
35042;SDS011;21230;51.170;17.024;2022-09-30T06:25:44;59.08;;;37.00;;
35042;SDS011;21230;51.170;17.024;2022-09-30T06:29:08;54.03;;;34.53;;
35042;SDS011;21230;51.170;17.024;2022-09-30T06:32:00;51.83;;;33.00;;
35042;SDS011;21230;51.170;17.024;2022-09-30T06:34:49;59.55;;;32.95;;
35042;SDS011;21230;51.170;17.024;2022-09-30T06:37:37;51.67;;;33.53;;
35042;SDS011;21230;51.170;17.024;2022-09-30T06:50:56;58.10;;;34.60;;
35042;SDS011;21230;51.170;17.024;2022-09-30T06:53:45;71.93;;;38.85;;
35042;SDS011;21230;51.170;17.024;2022-09-30T07:00:25;56.78;;;35.20;;
35042;SDS011;21230;51.170;17.024;2022-09-30T07:03:21;54.85;;;36.72;;
35042;SDS011;21230;51.170;17.024;2022-09-30T07:06:31;60.40;;;32.22;;
35042;SDS011;21230;51.170;17.024;2022-09-30T07:09:39;49.38;;;32.42;;
35042;SDS011;21230;51.170;17.024;2022-09-30T07:15:35;47.47;;;32.23;;
35042;SDS011;21230;51.170;17.024;2022-09-30T07:28:54;49.20;;;31.63;;
35042;SDS011;21230;51.170;17.024;2022-09-30T07:31:47;49.50;;;32.58;;
35042;SDS011;21230;51.170;17.024;2022-09-30T07:34:43;55.30;;;32.88;;
35042;SDS011;21230;51.170;17.024;2022-09-30T07:37:47;50.03;;;29.88;;
35042;SDS011;21230;51.170;17.024;2022-09-30T07:40:16;55.38;;;35.42;;
